Time;durP1;ratioP1;P1;durP2;ratioP2;P2;SDS_P1;SDS_P2;PMS_P1;PMS_P2;Temp;Humidity;BMP_temperature;BMP_pressure;BME280_temperature;BME280_humidity;BME280_pressure;Samples;Min_cycle;Max_cycle;Signal;HPM_P1;HPM_P2
2021/01/10 00:02:08;;;;;;;31.74;19.38;;;0.60;99.90;;;5.49;87.26;102452.86;1770878;71;24417;-74
2021/01/10 00:04:27;;;;;;;34.05;20.50;;;0.60;99.90;;;5.56;88.11;102449.44;1773173;71;24566;-75
2021/01/10 00:06:44;;;;;;;28.91;20.38;;;0.60;99.90;;;5.58;88.48;102443.07;1775182;70;24589;-73
2021/01/10 00:09:03;;;;;;;28.41;17.86;;;0.60;99.90;;;5.64;88.63;102444.27;1773841;70;24879;-73
2021/01/10 00:11:20;;;;;;;34.20;19.05;;;0.50;99.90;;;5.43;87.06;102448.65;1770307;71;24437;-74
2021/01/10 00:13:36;;;;;;;25.40;18.99;;;0.50;99.90;;;5.45;87.88;102438.91;1770086;71;24470;-73
2021/01/10 00:15:52;;;;;;;27.52;19.63;;;0.50;99.90;;;5.48;87.93;102442.95;1781766;71;24449;-74
2021/01/10 00:18:10;;;;;;;28.18;18.30;;;0.50;99.90;;;5.51;88.24;102437.95;1780626;70;24459;-74
2021/01/10 00:20:27;;;;;;;27.72;19.05;;;0.50;99.90;;;5.44;87.53;102431.94;1773446;71;24888;-73
2021/01/10 00:22:44;;;;;;;26.81;19.22;;;0.50;99.90;;;5.47;88.14;102438.57;1768508;71;24897;-73
2021/01/10 00:25:00;;;;;;;30.95;18.84;;;0.60;99.90;;;5.49;88.54;102443.82;1775709;71;24411;-74
2021/01/10 00:27:19;;;;;;;30.42;19.20;;;0.50;99.90;;;5.46;88.44;102441.97;1767357;71;25379;-74
2021/01/10 00:29:36;;;;;;;26.98;18.95;;;0.60;99.90;;;5.47;88.56;102444.16;1773308;71;24419;-74
2021/01/10 00:31:52;;;;;;;29.61;19.54;;;0.50;99.90;;;5.51;88.80;102437.05;1772871;70;24477;-74
2021/01/10 00:34:08;;;;;;;28.02;18.48;;;0.50;99.90;;;5.47;88.57;102437.70;1769683;71;25070;-73
2021/01/10 00:36:25;;;;;;;33.61;19.50;;;0.50;99.90;;;5.43;88.27;102434.44;1785575;71;24455;-73
2021/01/10 00:38:41;;;;;;;28.71;18.57;;;0.50;99.90;;;5.46;88.41;102439.39;1770267;71;24418;-74
2021/01/10 00:40:57;;;;;;;26.13;18.93;;;0.50;99.90;;;5.43;88.39;102440.90;1776348;71;24421;-72
2021/01/10 00:43:13;;;;;;;25.30;18.44;;;0.50;99.90;;;5.40;88.21;102437.75;1778139;71;24866;-72
2021/01/10 00:45:29;;;;;;;26.87;17.85;;;0.50;99.90;;;5.34;87.76;102437.38;1777831;71;24425;-74
2021/01/10 00:47:45;;;;;;;29.36;19.04;;;0.50;99.90;;;5.34;87.68;102436.52;1777035;70;24425;-73
2021/01/10 00:50:03;;;;;;;26.90;18.36;;;0.40;99.90;;;5.35;87.93;102447.32;1778794;71;24364;-73
2021/01/10 00:52:19;;;;;;;29.44;20.45;;;0.40;99.90;;;5.34;88.55;102437.38;1779213;71;24419;-73
2021/01/10 00:54:36;;;;;;;30.71;19.92;;;0.40;99.90;;;5.39;89.07;102444.13;1770792;71;24911;-73
2021/01/10 00:56:54;;;;;;;32.00;19.77;;;0.40;99.90;;;5.33;88.68;102439.87;1775078;71;24577;-73
2021/01/10 00:59:10;;;;;;;27.08;20.87;;;0.40;99.90;;;5.31;88.82;102444.96;1778488;71;24429;-73
2021/01/10 01:01:27;;;;;;;31.29;21.10;;;0.40;99.90;;;5.31;89.14;102441.09;1779181;70;24477;-73
2021/01/10 01:03:43;;;;;;;27.83;20.94;;;0.40;99.90;;;5.28;89.14;102446.08;1772090;71;24510;-74
2021/01/10 01:06:01;;;;;;;29.89;21.51;;;0.40;99.90;;;5.28;89.09;102444.78;1775327;71;24372;-73
2021/01/10 01:08:17;;;;;;;31.20;21.58;;;0.40;99.90;;;5.31;89.44;102450.13;1774508;71;24521;-74
2021/01/10 01:10:36;;;;;;;31.06;21.50;;;0.40;99.90;;;5.32;89.22;102448.44;1773816;71;24472;-73
2021/01/10 01:12:54;;;;;;;29.83;20.98;;;0.40;99.90;;;5.31;89.25;102451.84;1774621;71;24456;-73
2021/01/10 01:15:14;;;;;;;30.56;20.81;;;0.40;99.90;;;5.31;88.92;102446.25;1778607;70;24495;-72
2021/01/10 01:17:30;;;;;;;32.60;22.30;;;0.40;99.90;;;5.23;88.34;102445.34;1770937;71;25006;-73
2021/01/10 01:19:45;;;;;;;29.20;21.19;;;0.40;99.90;;;5.22;87.73;102452.19;1770061;71;24523;-73
2021/01/10 01:22:02;;;;;;;30.36;21.58;;;0.40;99.90;;;5.29;88.12;102448.27;1782370;71;24442;-74
2021/01/10 01:24:19;;;;;;;31.53;22.67;;;0.40;99.90;;;5.17;87.64;102443.28;1775779;71;24414;-75
2021/01/10 01:26:35;;;;;;;32.81;22.52;;;0.40;99.90;;;5.24;88.20;102438.98;1770964;71;24905;-74
2021/01/10 01:28:53;;;;;;;29.90;20.16;;;0.40;99.90;;;5.28;87.99;102443.50;1771959;71;24540;-73
2021/01/10 01:31:09;;;;;;;30.45;19.53;;;0.40;99.90;;;5.18;87.24;102442.89;1771705;71;24412;-73
2021/01/10 01:33:25;;;;;;;27.99;18.64;;;0.40;99.90;;;5.12;86.92;102438.67;1769673;71;24910;-73
2021/01/10 01:35:42;;;;;;;26.90;18.94;;;0.40;99.90;;;4.98;86.51;102440.44;1772941;71;24448;-73
2021/01/10 01:37:58;;;;;;;32.69;21.30;;;0.40;99.90;;;5.05;87.36;102445.56;1789312;71;24425;-72
2021/01/10 01:40:16;;;;;;;27.81;20.53;;;0.40;99.90;;;5.14;87.86;102439.66;1787639;70;24468;-72
2021/01/10 01:42:34;;;;;;;28.77;20.82;;;0.40;99.90;;;5.12;88.12;102445.12;1780000;70;24490;-73
2021/01/10 01:44:50;;;;;;;30.03;20.77;;;0.40;99.90;;;5.05;88.18;102444.27;1772516;71;24893;-73
2021/01/10 01:47:08;;;;;;;27.01;20.72;;;0.30;99.90;;;5.06;88.50;102439.63;1784232;71;24479;-73
2021/01/10 01:49:27;;;;;;;28.18;20.79;;;0.30;99.90;;;5.12;88.77;102449.00;1791066;70;24957;-72
2021/01/10 01:51:45;;;;;;;29.23;20.09;;;0.30;99.90;;;5.09;88.34;102443.66;1772436;71;24497;-73
2021/01/10 01:54:02;;;;;;;30.57;21.36;;;0.30;99.90;;;5.07;87.40;102447.45;1776177;71;24416;-74
2021/01/10 01:56:18;;;;;;;31.97;22.73;;;0.20;99.90;;;5.22;88.35;102457.74;1775053;71;24415;-73
2021/01/10 01:58:34;;;;;;;34.88;23.33;;;0.30;99.90;;;5.37;88.83;102453.47;1758309;72;24412;-73
2021/01/10 02:00:51;;;;;;;33.20;22.15;;;0.30;99.90;;;5.46;88.97;102452.30;1778383;71;24416;-73
2021/01/10 02:03:07;;;;;;;27.44;20.50;;;0.40;99.90;;;5.47;88.91;102446.75;1772988;71;24863;-73
2021/01/10 02:05:27;;;;;;;28.78;20.46;;;0.40;99.90;;;5.29;87.95;102446.98;1771846;71;24535;-73
2021/01/10 02:07:51;;;;;;;27.43;20.26;;;0.40;99.90;;;5.30;88.18;102446.16;1770454;71;24488;-72
2021/01/10 02:10:10;;;;;;;27.77;19.04;;;0.40;99.90;;;5.33;88.44;102439.87;1773485;71;24477;-72
2021/01/10 02:12:30;;;;;;;26.69;19.11;;;0.40;99.90;;;5.24;87.90;102447.11;1774691;71;24471;-73
2021/01/10 02:14:53;;;;;;;31.07;20.11;;;0.40;99.90;;;5.16;87.57;102436.35;1770573;70;24491;-73
2021/01/10 02:17:10;;;;;;;21.15;18.14;;;0.40;99.90;;;5.29;88.91;102445.30;1755485;71;24555;-73
2021/01/10 02:19:33;;;;;;;30.77;20.30;;;0.40;99.90;;;5.26;88.06;102437.38;1749396;72;24982;-72
2021/01/10 02:21:54;;;;;;;26.90;20.11;;;0.40;99.90;;;5.44;88.60;102442.27;1771281;71;24492;-73
2021/01/10 02:24:12;;;;;;;30.25;22.05;;;0.40;99.90;;;5.49;88.39;102439.95;1778538;71;24431;-72
2021/01/10 02:26:31;;;;;;;29.94;20.00;;;0.40;99.90;;;5.54;88.68;102441.09;1769986;71;24445;-72
2021/01/10 02:28:48;;;;;;;31.38;20.53;;;0.50;99.90;;;5.58;87.98;102437.48;1770287;71;24421;-73
2021/01/10 02:31:07;;;;;;;32.17;20.88;;;0.50;99.90;;;5.61;88.55;102438.94;1775153;70;24419;-73
2021/01/10 02:33:29;;;;;;;31.57;20.47;;;0.60;99.90;;;5.67;88.38;102426.77;1770054;71;24418;-74
2021/01/10 02:35:47;;;;;;;30.88;20.29;;;0.60;99.90;;;5.61;87.87;102417.40;1769985;71;24940;-74
2021/01/10 02:41:22;;;;;;;25.63;18.19;;;0.80;99.90;;;5.85;87.45;102413.58;1806077;70;25314;-72
2021/01/10 02:43:43;;;;;;;26.44;18.12;;;0.80;99.90;;;5.68;88.05;102422.98;1780440;71;24986;-72
2021/01/10 02:46:05;;;;;;;26.39;19.15;;;0.80;99.90;;;5.66;87.61;102426.27;1794189;70;24467;-74
2021/01/10 02:48:22;;;;;;;24.95;18.60;;;0.80;99.90;;;5.72;88.06;102414.58;1776451;71;24525;-72
2021/01/10 02:50:39;;;;;;;22.68;17.38;;;0.80;99.90;;;5.71;87.68;102413.20;1767236;71;24408;-74
2021/01/10 02:52:55;;;;;;;27.01;19.13;;;0.80;99.90;;;5.62;87.36;102414.00;1779408;71;24989;-74
2021/01/10 02:55:15;;;;;;;25.99;19.90;;;0.80;99.90;;;5.45;87.94;102412.18;1774752;72;24535;-74
2021/01/10 02:57:36;;;;;;;28.47;20.40;;;0.70;99.90;;;5.34;88.36;102414.56;1769000;71;24429;-72
2021/01/10 02:59:55;;;;;;;35.30;24.20;;;0.70;99.90;;;5.14;88.00;102409.55;1771068;71;24532;-72
2021/01/10 03:02:15;;;;;;;36.46;25.46;;;0.60;99.90;;;5.01;88.11;102416.09;1769645;71;24871;-72
2021/01/10 03:04:32;;;;;;;37.91;26.60;;;0.50;99.90;;;5.15;88.62;102410.06;1758915;72;24988;-72
2021/01/10 03:06:52;;;;;;;36.92;25.75;;;0.40;99.90;;;5.16;88.45;102407.95;1774034;71;24422;-73
2021/01/10 03:09:09;;;;;;;33.64;24.33;;;0.40;99.90;;;4.99;87.77;102415.14;1765432;71;24461;-73
2021/01/10 03:11:26;;;;;;;39.00;26.87;;;0.30;99.90;;;5.08;87.83;102405.33;1773239;71;24449;-73
2021/01/10 03:13:44;;;;;;;34.95;25.66;;;0.30;99.90;;;5.22;88.54;102409.97;1773265;71;24453;-73
2021/01/10 03:16:02;;;;;;;36.70;26.35;;;0.30;99.90;;;5.13;87.77;102409.07;1783239;71;24943;-73
2021/01/10 03:18:23;;;;;;;40.13;26.17;;;0.30;99.90;;;5.13;88.05;102406.88;1771281;71;24854;-73
2021/01/10 03:20:39;;;;;;;39.17;26.41;;;0.30;99.90;;;5.16;88.08;102404.47;1774289;70;24862;-74
2021/01/10 03:22:55;;;;;;;37.07;27.30;;;0.30;99.90;;;5.32;88.52;102403.25;1768900;71;24516;-73
2021/01/10 03:25:15;;;;;;;31.99;22.72;;;0.30;99.90;;;5.47;88.78;102407.57;1774467;70;24495;-73
2021/01/10 03:27:33;;;;;;;34.28;24.10;;;0.40;99.90;;;5.54;88.48;102401.95;1770851;71;24414;-75
2021/01/10 03:29:49;;;;;;;31.83;21.43;;;0.40;99.90;;;5.61;88.23;102401.89;1775461;71;24442;-72
2021/01/10 03:32:07;;;;;;;32.86;22.35;;;0.50;99.90;;;5.64;88.03;102402.92;1777014;71;24408;-72
2021/01/10 03:34:23;;;;;;;26.00;18.30;;;0.60;99.90;;;5.71;88.01;102396.41;1786892;70;24924;-73
2021/01/10 03:36:38;;;;;;;31.36;22.85;;;0.70;99.90;;;5.63;87.66;102393.41;1766473;71;24415;-74
2021/01/10 03:38:54;;;;;;;30.47;22.32;;;0.80;99.90;;;5.88;88.35;102399.56;1785843;71;24992;-72
2021/01/10 03:41:12;;;;;;;30.98;22.52;;;0.80;99.90;;;5.91;88.06;102401.02;1784690;70;24858;-73
2021/01/10 03:43:28;;;;;;;27.34;21.42;;;0.90;99.90;;;5.82;87.92;102405.27;1779605;71;24494;-72
2021/01/10 03:45:44;;;;;;;25.25;18.55;;;0.90;99.90;;;5.68;87.80;102403.99;1772383;71;24417;-72
2021/01/10 03:48:00;;;;;;;26.04;19.00;;;0.90;99.90;;;5.43;87.37;102400.47;1767401;71;24457;-72
2021/01/10 03:50:16;;;;;;;28.75;19.24;;;0.90;99.90;;;5.39;87.64;102398.50;1782267;71;24442;-73
2021/01/10 03:52:32;;;;;;;27.22;19.70;;;0.80;99.90;;;5.39;87.80;102395.92;1783188;71;24459;-74
2021/01/10 03:54:47;;;;;;;25.22;19.13;;;0.70;99.90;;;5.36;88.00;102396.18;1781388;71;24467;-73
2021/01/10 03:57:04;;;;;;;27.55;19.57;;;0.70;99.90;;;5.44;88.20;102394.48;1779703;71;24436;-72
2021/01/10 03:59:20;;;;;;;27.85;19.64;;;0.60;99.90;;;5.50;88.64;102395.25;1778394;71;24460;-73
2021/01/10 04:01:38;;;;;;;27.72;19.90;;;0.60;99.90;;;5.56;88.49;102393.90;1767760;71;24417;-73
2021/01/10 04:03:54;;;;;;;29.03;19.94;;;0.60;99.90;;;5.52;88.20;102387.16;1775489;71;24446;-72
2021/01/10 04:06:10;;;;;;;25.84;20.40;;;0.50;99.90;;;5.47;87.97;102385.62;1769647;71;24477;-73
2021/01/10 04:08:26;;;;;;;26.73;20.84;;;0.60;99.90;;;5.57;87.85;102387.91;1766099;71;24966;-75
2021/01/10 04:10:42;;;;;;;26.62;19.97;;;0.60;99.90;;;5.67;88.53;102384.14;1769708;71;24676;-72
2021/01/10 04:12:57;;;;;;;29.57;21.37;;;0.60;99.90;;;5.71;87.61;102382.19;1769308;71;24415;-73
2021/01/10 04:15:15;;;;;;;29.94;20.85;;;0.60;99.90;;;5.82;87.90;102381.11;1774723;71;24415;-73
2021/01/10 04:17:31;;;;;;;27.40;19.10;;;0.70;99.90;;;5.86;87.94;102377.91;1767653;72;24429;-73
2021/01/10 04:19:47;;;;;;;30.25;20.27;;;0.80;99.90;;;5.73;87.73;102377.61;1758593;72;24441;-71
2021/01/10 04:22:03;;;;;;;29.86;20.07;;;0.80;99.90;;;5.84;88.05;102375.23;1762622;72;24464;-73
2021/01/10 04:24:19;;;;;;;27.86;20.05;;;0.90;99.90;;;5.80;87.56;102374.96;1752087;72;24452;-73
2021/01/10 04:26:40;;;;;;;28.21;19.53;;;0.90;99.90;;;5.84;87.64;102370.46;1753996;72;24933;-73
2021/01/10 04:28:57;;;;;;;30.23;18.19;;;0.90;99.90;;;5.73;87.71;102368.56;1770721;71;24961;-72
2021/01/10 04:31:12;;;;;;;25.84;18.36;;;0.90;99.90;;;5.62;87.71;102372.27;1778588;71;24471;-72
2021/01/10 04:33:29;;;;;;;26.79;17.96;;;0.80;99.90;;;5.67;87.81;102370.83;1765118;71;24887;-72
2021/01/10 04:35:45;;;;;;;23.23;17.85;;;0.80;99.90;;;5.74;87.89;102372.02;1765629;71;24421;-74
2021/01/10 04:38:01;;;;;;;23.98;16.89;;;0.80;99.90;;;5.74;87.49;102374.20;1767892;71;24430;-71
2021/01/10 04:40:19;;;;;;;25.90;19.87;;;0.80;99.90;;;5.59;87.37;102378.56;1764057;71;25009;-74
2021/01/10 04:42:38;;;;;;;23.91;19.58;;;0.80;99.90;;;5.74;88.21;102376.80;1759112;71;24424;-74
2021/01/10 04:44:55;;;;;;;25.34;19.80;;;0.80;99.90;;;5.80;88.25;102378.84;1759673;71;24677;-72
2021/01/10 04:47:12;;;;;;;22.60;17.64;;;0.80;99.90;;;5.78;87.82;102377.47;1759436;71;24433;-73
2021/01/10 04:49:29;;;;;;;21.81;17.77;;;0.80;99.90;;;5.50;87.68;102377.16;1751920;71;24862;-72
2021/01/10 04:51:47;;;;;;;22.85;17.27;;;0.80;99.90;;;5.51;87.96;102380.22;1757469;72;24884;-74
2021/01/10 04:54:06;;;;;;;24.00;16.90;;;0.70;99.90;;;5.48;88.18;102377.47;1767021;71;24401;-73
2021/01/10 04:56:28;;;;;;;26.41;17.36;;;0.70;99.90;;;5.30;87.69;102376.44;1767252;71;24876;-72
2021/01/10 04:58:47;;;;;;;23.90;17.72;;;0.60;99.90;;;5.34;88.01;102377.98;1766487;71;24486;-72
2021/01/10 05:01:06;;;;;;;25.14;18.42;;;0.50;99.90;;;5.38;88.52;102382.53;1776470;71;24439;-73
2021/01/10 05:03:25;;;;;;;26.20;18.66;;;0.50;99.90;;;5.36;88.44;102384.55;1761868;71;24416;-73
2021/01/10 05:05:42;;;;;;;26.40;19.51;;;0.40;99.90;;;5.26;88.48;102381.86;1779038;71;24485;-73
2021/01/10 05:08:00;;;;;;;24.73;19.86;;;0.30;99.90;;;5.29;88.96;102383.32;1779567;71;24437;-72
2021/01/10 05:10:16;;;;;;;29.53;20.30;;;0.30;99.90;;;5.28;89.01;102388.41;1771801;71;24968;-72
2021/01/10 05:12:32;;;;;;;31.98;19.96;;;0.20;99.90;;;5.25;88.86;102383.94;1772317;71;24495;-71
2021/01/10 05:14:48;;;;;;;24.24;18.24;;;0.20;99.90;;;5.04;88.12;102380.55;1776339;71;24458;-73
2021/01/10 05:17:04;;;;;;;24.36;18.50;;;0.20;99.90;;;4.96;87.92;102377.94;1770532;71;24986;-72
2021/01/10 05:19:22;;;;;;;28.29;20.06;;;0.20;99.90;;;5.03;87.85;102374.48;1784256;71;24886;-73
2021/01/10 05:21:42;;;;;;;26.90;18.98;;;0.20;99.90;;;5.16;87.67;102373.09;1774793;71;24415;-73
2021/01/10 05:24:01;;;;;;;29.91;19.90;;;0.20;99.90;;;5.11;87.24;102372.33;1769801;71;24436;-73
2021/01/10 05:26:19;;;;;;;30.53;21.62;;;0.20;99.90;;;5.08;87.45;102371.77;1765489;71;25057;-73
2021/01/10 05:28:36;;;;;;;31.17;22.28;;;0.20;99.90;;;5.24;87.98;102369.65;1773120;71;24482;-73
2021/01/10 05:30:52;;;;;;;28.25;20.77;;;0.30;99.90;;;5.36;88.49;102369.92;1772913;71;24943;-73
2021/01/10 05:33:10;;;;;;;27.10;20.94;;;0.30;99.90;;;5.29;87.73;102365.24;1774543;71;24479;-73
2021/01/10 05:35:27;;;;;;;26.43;20.04;;;0.30;99.90;;;5.34;87.68;102358.61;1764949;71;24431;-74
2021/01/10 05:38:00;;;;;;;26.72;20.83;;;0.30;99.90;;;5.26;87.02;102359.02;1773685;70;24511;-73
2021/01/10 05:40:23;;;;;;;27.60;21.20;;;0.30;99.90;;;5.41;87.19;102352.09;1777680;71;24464;-73
2021/01/10 05:42:41;;;;;;;28.77;20.22;;;0.30;99.90;;;5.54;87.40;102358.03;1769633;71;24436;-72
2021/01/10 05:44:57;;;;;;;31.60;21.84;;;0.40;99.90;;;5.59;87.15;102355.31;1770662;71;24560;-73
2021/01/10 05:47:16;;;;;;;29.81;20.41;;;0.40;99.90;;;5.91;87.63;102350.18;1782349;70;24467;-72
2021/01/10 05:49:34;;;;;;;30.11;20.53;;;0.50;99.90;;;5.96;87.17;102349.13;1775111;71;24429;-72
2021/01/10 05:51:54;;;;;;;27.67;20.33;;;0.60;99.90;;;6.03;86.91;102352.14;1773243;70;24953;-72
2021/01/10 05:54:10;;;;;;;24.85;20.20;;;0.70;99.90;;;6.18;86.94;102346.85;1772394;71;24418;-72
2021/01/10 05:56:26;;;;;;;27.94;20.40;;;0.80;99.90;;;6.24;86.91;102347.20;1783231;70;24404;-73
2021/01/10 05:58:43;;;;;;;25.89;19.79;;;0.90;99.90;;;6.27;86.51;102352.92;1776897;70;24429;-73
2021/01/10 06:01:00;;;;;;;24.63;19.50;;;1.00;99.90;;;6.27;86.51;102355.11;1769269;71;24869;-72
2021/01/10 06:03:20;;;;;;;26.36;20.37;;;1.00;99.90;;;6.29;86.34;102351.31;1778111;71;24481;-72
2021/01/10 06:05:39;;;;;;;25.30;20.22;;;1.10;99.90;;;6.31;86.43;102354.88;1782656;71;24973;-73
2021/01/10 06:07:55;;;;;;;30.15;20.25;;;1.10;99.90;;;6.32;86.56;102354.95;1771013;71;24427;-72
2021/01/10 06:10:17;;;;;;;26.34;19.95;;;1.20;99.90;;;6.34;86.69;102354.60;1772286;71;24417;-72
2021/01/10 06:12:34;;;;;;;26.30;19.98;;;1.30;99.90;;;6.37;86.60;102356.48;1769791;70;24492;-73
2021/01/10 06:14:50;;;;;;;25.69;17.62;;;1.30;99.90;;;6.30;86.75;102356.56;1772094;71;24431;-72
2021/01/10 06:17:07;;;;;;;23.85;18.22;;;1.30;99.90;;;6.14;88.02;102357.47;1776634;71;24917;-73
2021/01/10 06:19:29;;;;;;;25.56;17.33;;;1.40;99.90;;;6.31;88.41;102363.92;1769680;71;24493;-73
2021/01/10 06:21:50;;;;;;;23.27;17.53;;;1.40;99.90;;;6.36;88.31;102365.92;1764614;72;24511;-72
2021/01/10 06:24:17;;;;;;;25.24;17.92;;;1.40;99.90;;;6.31;88.48;102367.38;1769725;71;24952;-73
2021/01/10 06:26:38;;;;;;;23.81;18.10;;;1.50;99.90;;;6.42;88.27;102361.48;1771276;71;24505;-71
2021/01/10 06:29:00;;;;;;;21.95;16.96;;;1.50;99.90;;;6.45;87.80;102368.97;1776633;71;24439;-73
2021/01/10 06:31:23;;;;;;;24.08;19.00;;;1.40;99.90;;;6.34;87.69;102369.26;1773403;71;24508;-73
2021/01/10 06:33:41;;;;;;;23.40;17.86;;;1.40;99.90;;;6.25;88.46;102370.05;1782875;71;24950;-73
2021/01/10 06:36:02;;;;;;;22.96;17.79;;;1.40;99.90;;;6.23;87.43;102370.40;1766722;72;24863;-71
2021/01/10 06:38:23;;;;;;;23.36;18.19;;;1.30;99.90;;;6.04;87.73;102368.13;1756018;71;24511;-72
2021/01/10 06:40:43;;;;;;;25.00;17.77;;;1.30;99.90;;;6.06;88.50;102371.69;1778234;71;24411;-72
2021/01/10 06:43:03;;;;;;;24.18;18.09;;;1.30;99.90;;;6.20;88.56;102365.07;1765372;72;24505;-73
2021/01/10 06:45:21;;;;;;;26.16;19.22;;;1.30;99.90;;;6.37;88.86;102362.52;1773617;71;24437;-73
2021/01/10 06:47:37;;;;;;;24.03;18.16;;;1.30;99.90;;;6.47;88.23;102367.36;1771671;71;24413;-73
2021/01/10 06:49:54;;;;;;;24.14;18.52;;;1.30;99.90;;;6.40;87.84;102359.22;1782144;71;24417;-73
2021/01/10 06:52:13;;;;;;;22.82;17.68;;;1.30;99.90;;;6.47;88.57;102360.89;1770297;71;24925;-72
2021/01/10 06:54:30;;;;;;;25.56;19.02;;;1.40;99.90;;;6.66;88.44;102357.53;1771620;71;24416;-73
2021/01/10 06:56:52;;;;;;;25.02;19.39;;;1.40;99.90;;;6.73;87.70;102359.23;1774201;71;24687;-72
2021/01/10 06:59:10;;;;;;;23.94;18.28;;;1.50;99.90;;;6.59;86.96;102361.50;1772690;71;25202;-73
2021/01/10 07:01:28;;;;;;;23.06;18.02;;;1.50;99.90;;;6.53;87.09;102357.75;1776891;71;24416;-72
2021/01/10 07:03:59;;;;;;;24.96;16.98;;;1.50;99.90;;;6.55;87.97;102361.27;1770262;71;24928;-74
2021/01/10 07:06:17;;;;;;;25.11;14.72;;;1.60;99.90;;;6.53;87.80;102365.52;1773335;71;24913;-73
2021/01/10 07:08:35;;;;;;;23.60;16.83;;;1.60;99.90;;;6.42;88.33;102370.11;1780304;71;24546;-73
2021/01/10 07:10:51;;;;;;;22.27;17.03;;;1.60;99.90;;;6.55;88.42;102369.04;1767268;71;24495;-72
2021/01/10 07:13:29;;;;;;;23.06;16.97;;;1.60;99.90;;;6.65;88.50;102363.13;1767016;71;24505;-73
2021/01/10 07:15:46;;;;;;;22.42;17.32;;;1.60;99.90;;;6.62;87.92;102359.10;1772051;71;24896;-72
2021/01/10 07:18:14;;;;;;;21.35;17.63;;;1.60;99.90;;;6.66;88.60;102371.37;1779622;70;24532;-72
2021/01/10 07:20:41;;;;;;;19.51;16.61;;;1.60;99.90;;;6.72;87.92;102371.67;1764522;71;24919;-73
2021/01/10 07:23:29;;;;;;;24.36;16.86;;;1.70;99.90;;;6.67;88.05;102376.15;1790889;71;24400;-74
2021/01/10 07:25:45;;;;;;;19.70;16.60;;;1.60;99.90;;;6.81;88.08;102367.38;1771241;71;24438;-73
2021/01/10 07:31:21;;;;;;;21.46;16.89;;;1.70;99.90;;;6.90;87.75;102366.13;1734956;72;25705;-73
2021/01/10 07:33:37;;;;;;;21.54;16.74;;;1.70;99.90;;;6.63;88.76;102373.80;1693454;75;24765;-73
2021/01/10 07:36:13;;;;;;;23.17;17.04;;;1.70;99.90;;;6.86;88.45;102372.37;1696314;75;24463;-72
2021/01/10 07:38:31;;;;;;;21.05;15.71;;;1.70;99.90;;;6.82;88.06;102376.50;1693982;75;24487;-73
2021/01/10 07:40:48;;;;;;;23.26;16.89;;;1.70;99.90;;;6.79;88.63;102380.23;1692253;75;24434;-73
2021/01/10 07:43:05;;;;;;;21.67;16.64;;;1.70;99.90;;;6.72;88.32;102376.84;1696713;75;24989;-74
2021/01/10 07:45:26;;;;;;;21.95;17.10;;;1.70;99.90;;;6.82;87.83;102382.08;1705136;75;24502;-72
2021/01/10 07:47:47;;;;;;;22.88;18.14;;;1.70;99.90;;;6.70;88.38;102390.11;1692091;75;24512;-74
2021/01/10 07:50:10;;;;;;;23.71;17.52;;;1.70;99.90;;;6.46;87.51;102396.64;1697074;75;24918;-73
2021/01/10 07:52:59;;;;;;;20.61;13.53;;;1.70;99.90;;;6.16;88.53;102396.34;1695136;75;24592;-74
2021/01/10 07:55:29;;;;;;;18.41;14.16;;;1.70;99.90;;;5.97;89.60;102404.79;1696881;75;24858;-72
2021/01/10 07:57:49;;;;;;;19.62;15.62;;;1.50;99.90;;;5.91;91.03;102399.30;1694214;75;24488;-74
2021/01/10 08:00:28;;;;;;;23.93;17.25;;;1.50;99.90;;;6.05;91.14;102397.47;1696342;75;24580;-72
2021/01/10 08:02:57;;;;;;;24.39;18.19;;;1.40;99.90;;;6.13;90.80;102397.05;1696310;75;24437;-74
2021/01/10 08:05:18;;;;;;;24.69;18.59;;;1.40;99.90;;;6.17;90.33;102398.11;1698014;75;24513;-74
2021/01/10 08:07:38;;;;;;;24.31;18.39;;;1.40;99.90;;;6.26;89.88;102392.54;1695825;75;25115;-73
2021/01/10 08:09:59;;;;;;;23.35;18.23;;;1.30;99.90;;;6.08;89.42;102389.87;1700594;74;24532;-74
2021/01/10 08:12:15;;;;;;;23.65;18.32;;;1.30;99.90;;;6.11;89.77;102393.52;1671508;76;24440;-73
2021/01/10 08:14:31;;;;;;;24.96;18.20;;;1.30;99.90;;;6.06;89.41;102387.59;1701460;75;24437;-74
2021/01/10 08:16:48;;;;;;;24.06;18.06;;;1.30;99.90;;;6.19;89.27;102391.33;1678695;76;24443;-74
2021/01/10 08:19:07;;;;;;;25.08;18.41;;;1.30;99.90;;;6.12;89.00;102394.38;1703381;75;24517;-73
2021/01/10 08:21:24;;;;;;;27.39;18.49;;;1.30;99.90;;;6.09;89.41;102391.24;1702261;75;24456;-74
2021/01/10 08:23:44;;;;;;;28.44;19.64;;;1.30;99.90;;;6.19;89.40;102393.91;1705600;75;24996;-75
2021/01/10 08:26:11;;;;;;;25.37;18.77;;;1.30;99.90;;;6.14;89.37;102396.26;1694706;75;24993;-74
2021/01/10 08:28:27;;;;;;;26.80;19.88;;;1.40;99.90;;;6.14;89.19;102399.23;1692369;75;24496;-73
2021/01/10 08:30:44;;;;;;;24.92;18.98;;;1.40;99.90;;;6.22;89.72;102400.92;1662450;76;24494;-74
2021/01/10 08:33:00;;;;;;;23.94;20.03;;;1.40;99.90;;;6.35;89.34;102401.67;1686433;75;24499;-74
2021/01/10 08:35:22;;;;;;;22.31;18.92;;;1.40;99.90;;;6.38;89.42;102403.13;1683708;75;24884;-72
2021/01/10 08:37:39;;;;;;;23.68;19.39;;;1.50;99.90;;;6.43;88.90;102403.36;1688968;75;24421;-73
2021/01/10 08:40:05;;;;;;;24.31;19.09;;;1.50;99.90;;;6.52;89.41;102401.23;1688709;75;24882;-72
2021/01/10 08:42:21;;;;;;;22.70;19.23;;;1.50;99.90;;;6.55;89.17;102409.15;1692456;75;24483;-74
2021/01/10 08:44:40;;;;;;;25.84;18.69;;;1.60;99.90;;;6.70;89.09;102403.48;1688963;73;24903;-73
2021/01/10 08:46:55;;;;;;;23.29;18.36;;;1.60;99.90;;;6.67;89.16;102405.48;1681141;75;24449;-72
2021/01/10 08:49:20;;;;;;;21.58;18.53;;;1.70;99.90;;;6.82;88.46;102401.50;1686066;75;24441;-72
2021/01/10 08:51:41;;;;;;;21.74;17.90;;;1.80;99.90;;;6.73;89.00;102401.04;1659012;77;24385;-73
2021/01/10 08:53:57;;;;;;;24.74;18.47;;;1.80;99.90;;;6.84;88.76;102394.31;1687032;75;24537;-72
2021/01/10 08:56:17;;;;;;;19.97;17.70;;;1.80;99.90;;;6.91;88.45;102400.25;1659337;77;24420;-72
2021/01/10 08:58:34;;;;;;;22.87;16.44;;;1.90;99.90;;;7.07;88.67;102398.91;1692846;75;24529;-73
2021/01/10 09:00:51;;;;;;;22.49;17.15;;;2.00;99.90;;;7.06;88.65;102399.73;1689394;75;24525;-72
2021/01/10 09:03:18;;;;;;;22.47;16.77;;;2.00;99.90;;;7.07;89.09;102397.62;1694296;75;24566;-73
2021/01/10 09:05:35;;;;;;;19.94;15.88;;;2.10;99.90;;;6.94;89.90;102401.70;1697169;75;24433;-74
2021/01/10 09:07:57;;;;;;;20.07;16.39;;;2.10;99.90;;;7.17;89.70;102401.55;1683096;75;24917;-71
2021/01/10 09:10:17;;;;;;;19.36;15.46;;;2.20;99.90;;;7.26;88.67;102406.77;1690003;75;24523;-73
2021/01/10 09:12:39;;;;;;;23.06;17.59;;;2.20;99.90;;;7.14;88.66;102407.48;1662913;75;24451;-72
2021/01/10 09:15:00;;;;;;;19.58;16.71;;;2.30;99.90;;;7.25;88.92;102405.01;1688359;75;24873;-73
2021/01/10 09:17:21;;;;;;;20.69;16.59;;;2.30;99.90;;;7.29;88.48;102411.20;1686817;75;24491;-73
2021/01/10 09:19:39;;;;;;;19.84;16.19;;;2.30;99.90;;;7.33;88.59;102410.55;1695036;75;24962;-73
2021/01/10 09:21:56;;;;;;;20.40;16.40;;;2.40;99.90;;;7.32;88.40;102412.24;1660089;77;24439;-74
2021/01/10 09:24:15;;;;;;;20.91;16.86;;;2.40;99.90;;;7.34;87.88;102405.44;1687280;75;24516;-73
2021/01/10 09:26:35;;;;;;;17.71;14.73;;;2.50;99.90;;;7.43;87.45;102410.16;1693350;75;24531;-73
2021/01/10 09:28:51;;;;;;;19.92;15.68;;;2.50;99.90;;;7.32;87.81;102406.16;1682808;75;24461;-74
2021/01/10 09:31:07;;;;;;;18.48;15.33;;;2.60;99.90;;;7.46;89.42;102412.92;1689467;75;24450;-72
2021/01/10 09:33:30;;;;;;;19.01;15.34;;;2.60;99.90;;;7.50;89.05;102413.14;1692157;75;24440;-73
2021/01/10 09:35:49;;;;;;;20.07;15.22;;;2.70;99.90;;;7.56;88.49;102414.72;1688511;75;24936;-74
2021/01/10 09:38:12;;;;;;;18.18;15.35;;;2.70;99.90;;;7.54;89.13;102408.56;1689323;75;24587;-74
2021/01/10 09:40:28;;;;;;;19.51;14.43;;;2.80;99.90;;;7.70;88.79;102421.44;1687436;75;24874;-73
2021/01/10 09:42:47;;;;;;;17.90;14.68;;;2.80;99.90;;;7.81;88.63;102423.66;1684299;75;24424;-73
2021/01/10 09:45:04;;;;;;;17.28;14.11;;;2.90;99.90;;;7.78;88.43;102415.31;1693953;75;24504;-72